sensor_id;sensor_type;location;lat;lon;timestamp;P1;durP1;ratioP1;P2;durP2;ratioP2
75386;SDS011;63966;47.914;22.266;2023-02-28T00:02:52;10.63;;;4.97;;
75386;SDS011;63966;47.914;22.266;2023-02-28T00:05:56;12.70;;;6.20;;
75386;SDS011;63966;47.914;22.266;2023-02-28T00:09:00;15.68;;;6.65;;
75386;SDS011;63966;47.914;22.266;2023-02-28T00:12:03;14.20;;;6.45;;
75386;SDS011;63966;47.914;22.266;2023-02-28T00:15:12;13.47;;;5.60;;
75386;SDS011;63966;47.914;22.266;2023-02-28T00:18:15;11.65;;;5.47;;
75386;SDS011;63966;47.914;22.266;2023-02-28T00:21:19;11.13;;;5.57;;
75386;SDS011;63966;47.914;22.266;2023-02-28T00:24:23;12.40;;;5.63;;
75386;SDS011;63966;47.914;22.266;2023-02-28T00:27:26;10.38;;;5.18;;
75386;SDS011;63966;47.914;22.266;2023-02-28T00:30:30;11.77;;;5.20;;
75386;SDS011;63966;47.914;22.266;2023-02-28T00:33:33;10.52;;;5.50;;
75386;SDS011;63966;47.914;22.266;2023-02-28T00:36:37;10.88;;;5.00;;
75386;SDS011;63966;47.914;22.266;2023-02-28T00:39:41;10.60;;;5.32;;
75386;SDS011;63966;47.914;22.266;2023-02-28T00:42:44;11.25;;;5.35;;
75386;SDS011;63966;47.914;22.266;2023-02-28T00:45:48;9.63;;;4.87;;
75386;SDS011;63966;47.914;22.266;2023-02-28T00:48:52;12.07;;;5.00;;
75386;SDS011;63966;47.914;22.266;2023-02-28T00:51:55;13.73;;;6.05;;
75386;SDS011;63966;47.914;22.266;2023-02-28T00:55:01;11.48;;;5.53;;
75386;SDS011;63966;47.914;22.266;2023-02-28T00:58:04;12.03;;;5.60;;
75386;SDS011;63966;47.914;22.266;2023-02-28T01:01:08;12.32;;;5.78;;
75386;SDS011;63966;47.914;22.266;2023-02-28T01:04:13;10.57;;;5.63;;
75386;SDS011;63966;47.914;22.266;2023-02-28T01:07:16;11.55;;;5.63;;
75386;SDS011;63966;47.914;22.266;2023-02-28T01:10:21;14.55;;;6.50;;
75386;SDS011;63966;47.914;22.266;2023-02-28T01:13:25;15.63;;;6.90;;
75386;SDS011;63966;47.914;22.266;2023-02-28T01:16:28;18.17;;;7.88;;
75386;SDS011;63966;47.914;22.266;2023-02-28T01:19:32;20.35;;;9.00;;
75386;SDS011;63966;47.914;22.266;2023-02-28T01:22:37;16.17;;;7.88;;
75386;SDS011;63966;47.914;22.266;2023-02-28T01:25:42;19.05;;;8.63;;
75386;SDS011;63966;47.914;22.266;2023-02-28T01:28:45;19.03;;;8.03;;
75386;SDS011;63966;47.914;22.266;2023-02-28T01:31:50;16.52;;;7.05;;
75386;SDS011;63966;47.914;22.266;2023-02-28T01:34:53;14.43;;;6.90;;
75386;SDS011;63966;47.914;22.266;2023-02-28T01:37:57;15.52;;;6.40;;
75386;SDS011;63966;47.914;22.266;2023-02-28T01:48:02;14.10;;;6.72;;
75386;SDS011;63966;47.914;22.266;2023-02-28T01:51:11;15.38;;;6.22;;
75386;SDS011;63966;47.914;22.266;2023-02-28T01:54:22;20.95;;;9.00;;
75386;SDS011;63966;47.914;22.266;2023-02-28T01:57:37;19.90;;;7.87;;
75386;SDS011;63966;47.914;22.266;2023-02-28T02:00:45;16.27;;;7.43;;
75386;SDS011;63966;47.914;22.266;2023-02-28T02:04:01;18.73;;;7.30;;
75386;SDS011;63966;47.914;22.266;2023-02-28T02:07:06;16.92;;;6.65;;
75386;SDS011;63966;47.914;22.266;2023-02-28T02:30:33;12.60;;;5.05;;
75386;SDS011;63966;47.914;22.266;2023-02-28T02:34:48;9.52;;;4.60;;
75386;SDS011;63966;47.914;22.266;2023-02-28T02:40:52;9.90;;;4.80;;
75386;SDS011;63966;47.914;22.266;2023-02-28T02:44:13;9.63;;;4.28;;
75386;SDS011;63966;47.914;22.266;2023-02-28T02:47:36;9.45;;;4.63;;
75386;SDS011;63966;47.914;22.266;2023-02-28T02:50:45;9.68;;;4.43;;
75386;SDS011;63966;47.914;22.266;2023-02-28T02:54:01;9.82;;;4.45;;
75386;SDS011;63966;47.914;22.266;2023-02-28T02:57:25;9.07;;;4.40;;
75386;SDS011;63966;47.914;22.266;2023-02-28T03:00:37;10.85;;;4.82;;
75386;SDS011;63966;47.914;22.266;2023-02-28T03:03:45;9.45;;;4.70;;
75386;SDS011;63966;47.914;22.266;2023-02-28T03:06:50;9.48;;;4.80;;
75386;SDS011;63966;47.914;22.266;2023-02-28T03:09:57;9.93;;;4.63;;
75386;SDS011;63966;47.914;22.266;2023-02-28T03:19:55;9.52;;;4.43;;
75386;SDS011;63966;47.914;22.266;2023-02-28T03:23:16;9.67;;;4.77;;
75386;SDS011;63966;47.914;22.266;2023-02-28T03:26:26;10.73;;;4.60;;
75386;SDS011;63966;47.914;22.266;2023-02-28T03:29:34;10.48;;;4.53;;
75386;SDS011;63966;47.914;22.266;2023-02-28T03:32:50;10.65;;;4.78;;
75386;SDS011;63966;47.914;22.266;2023-02-28T03:36:04;8.80;;;4.32;;
75386;SDS011;63966;47.914;22.266;2023-02-28T03:39:19;9.30;;;4.55;;
75386;SDS011;63966;47.914;22.266;2023-02-28T03:42:29;8.60;;;4.22;;
75386;SDS011;63966;47.914;22.266;2023-02-28T03:45:35;9.52;;;4.43;;
75386;SDS011;63966;47.914;22.266;2023-02-28T03:48:44;8.00;;;4.17;;
75386;SDS011;63966;47.914;22.266;2023-02-28T03:52:00;10.93;;;3.90;;
75386;SDS011;63966;47.914;22.266;2023-02-28T03:55:09;8.57;;;4.13;;
75386;SDS011;63966;47.914;22.266;2023-02-28T03:58:26;9.52;;;4.20;;
75386;SDS011;63966;47.914;22.266;2023-02-28T04:01:47;9.70;;;4.03;;
75386;SDS011;63966;47.914;22.266;2023-02-28T04:04:51;9.15;;;4.30;;
75386;SDS011;63966;47.914;22.266;2023-02-28T04:08:02;8.85;;;4.30;;
75386;SDS011;63966;47.914;22.266;2023-02-28T04:11:11;9.80;;;4.03;;
75386;SDS011;63966;47.914;22.266;2023-02-28T04:14:23;10.90;;;4.27;;
75386;SDS011;63966;47.914;22.266;2023-02-28T04:17:27;9.93;;;4.47;;
75386;SDS011;63966;47.914;22.266;2023-02-28T04:20:30;8.63;;;4.18;;
75386;SDS011;63966;47.914;22.266;2023-02-28T04:23:34;11.63;;;4.05;;
75386;SDS011;63966;47.914;22.266;2023-02-28T04:26:37;9.73;;;4.83;;
75386;SDS011;63966;47.914;22.266;2023-02-28T04:29:41;9.43;;;3.78;;
75386;SDS011;63966;47.914;22.266;2023-02-28T04:32:46;10.77;;;4.68;;
75386;SDS011;63966;47.914;22.266;2023-02-28T04:36:00;9.40;;;4.65;;
75386;SDS011;63966;47.914;22.266;2023-02-28T04:39:05;11.23;;;4.73;;
75386;SDS011;63966;47.914;22.266;2023-02-28T04:42:09;10.43;;;4.22;;
75386;SDS011;63966;47.914;22.266;2023-02-28T04:45:13;15.07;;;4.63;;
75386;SDS011;63966;47.914;22.266;2023-02-28T04:48:16;9.90;;;4.57;;
75386;SDS011;63966;47.914;22.266;2023-02-28T04:51:23;10.77;;;4.67;;
75386;SDS011;63966;47.914;22.266;2023-02-28T04:54:27;8.70;;;3.95;;
75386;SDS011;63966;47.914;22.266;2023-02-28T04:57:31;9.80;;;4.38;;
75386;SDS011;63966;47.914;22.266;2023-02-28T05:00:35;9.43;;;4.15;;
75386;SDS011;63966;47.914;22.266;2023-02-28T05:03:39;8.05;;;3.72;;
75386;SDS011;63966;47.914;22.266;2023-02-28T05:06:43;10.55;;;4.32;;
75386;SDS011;63966;47.914;22.266;2023-02-28T05:09:47;9.73;;;3.80;;
75386;SDS011;63966;47.914;22.266;2023-02-28T05:12:50;10.57;;;4.27;;
75386;SDS011;63966;47.914;22.266;2023-02-28T05:15:54;11.73;;;4.80;;
75386;SDS011;63966;47.914;22.266;2023-02-28T05:18:58;13.52;;;5.63;;
75386;SDS011;63966;47.914;22.266;2023-02-28T05:22:02;12.93;;;5.85;;
75386;SDS011;63966;47.914;22.266;2023-02-28T05:25:05;9.90;;;5.07;;
75386;SDS011;63966;47.914;22.266;2023-02-28T05:28:11;9.82;;;4.38;;
75386;SDS011;63966;47.914;22.266;2023-02-28T05:31:15;8.90;;;4.30;;
75386;SDS011;63966;47.914;22.266;2023-02-28T05:34:18;6.97;;;3.45;;
75386;SDS011;63966;47.914;22.266;2023-02-28T05:37:22;8.27;;;3.93;;
75386;SDS011;63966;47.914;22.266;2023-02-28T05:40:25;8.95;;;3.70;;
75386;SDS011;63966;47.914;22.266;2023-02-28T05:43:29;11.68;;;4.07;;
75386;SDS011;63966;47.914;22.266;2023-02-28T05:46:32;9.90;;;3.95;;
75386;SDS011;63966;47.914;22.266;2023-02-28T05:49:36;12.27;;;4.20;;
75386;SDS011;63966;47.914;22.266;2023-02-28T05:52:40;9.05;;;3.78;;
75386;SDS011;63966;47.914;22.266;2023-02-28T05:55:44;8.18;;;3.63;;
75386;SDS011;63966;47.914;22.266;2023-02-28T05:58:50;8.50;;;3.70;;
75386;SDS011;63966;47.914;22.266;2023-02-28T06:01:53;10.13;;;3.90;;
75386;SDS011;63966;47.914;22.266;2023-02-28T06:04:57;8.25;;;3.75;;
75386;SDS011;63966;47.914;22.266;2023-02-28T06:08:01;9.23;;;4.43;;
75386;SDS011;63966;47.914;22.266;2023-02-28T06:11:04;10.07;;;4.72;;
75386;SDS011;63966;47.914;22.266;2023-02-28T06:14:18;8.80;;;4.50;;
75386;SDS011;63966;47.914;22.266;2023-02-28T06:17:22;19.48;;;7.10;;
75386;SDS011;63966;47.914;22.266;2023-02-28T06:20:26;19.10;;;7.85;;
75386;SDS011;63966;47.914;22.266;2023-02-28T06:23:31;19.17;;;7.30;;
75386;SDS011;63966;47.914;22.266;2023-02-28T06:26:35;17.90;;;8.30;;
75386;SDS011;63966;47.914;22.266;2023-02-28T06:29:39;12.77;;;6.25;;
75386;SDS011;63966;47.914;22.266;2023-02-28T06:32:43;10.05;;;5.15;;
75386;SDS011;63966;47.914;22.266;2023-02-28T06:35:50;11.80;;;5.18;;
75386;SDS011;63966;47.914;22.266;2023-02-28T06:38:54;11.05;;;4.82;;
75386;SDS011;63966;47.914;22.266;2023-02-28T06:41:58;11.63;;;5.05;;
75386;SDS011;63966;47.914;22.266;2023-02-28T06:45:02;11.57;;;5.32;;
75386;SDS011;63966;47.914;22.266;2023-02-28T06:48:11;10.13;;;4.65;;
75386;SDS011;63966;47.914;22.266;2023-02-28T06:51:17;12.30;;;5.97;;
75386;SDS011;63966;47.914;22.266;2023-02-28T06:54:24;12.45;;;5.10;;
75386;SDS011;63966;47.914;22.266;2023-02-28T06:57:30;9.30;;;4.40;;
75386;SDS011;63966;47.914;22.266;2023-02-28T07:00:36;9.65;;;4.32;;
75386;SDS011;63966;47.914;22.266;2023-02-28T07:03:40;8.70;;;3.90;;
75386;SDS011;63966;47.914;22.266;2023-02-28T07:06:43;9.10;;;4.28;;
75386;SDS011;63966;47.914;22.266;2023-02-28T07:09:47;11.40;;;4.78;;
75386;SDS011;63966;47.914;22.266;2023-02-28T07:12:50;10.13;;;4.63;;
75386;SDS011;63966;47.914;22.266;2023-02-28T07:15:58;8.67;;;4.40;;
75386;SDS011;63966;47.914;22.266;2023-02-28T07:19:03;10.38;;;4.60;;
75386;SDS011;63966;47.914;22.266;2023-02-28T07:22:07;9.90;;;4.65;;
75386;SDS011;63966;47.914;22.266;2023-02-28T07:25:11;12.40;;;5.28;;
75386;SDS011;63966;47.914;22.266;2023-02-28T07:28:14;9.40;;;4.55;;
75386;SDS011;63966;47.914;22.266;2023-02-28T07:31:18;11.73;;;4.73;;
75386;SDS011;63966;47.914;22.266;2023-02-28T07:34:22;8.60;;;4.47;;
75386;SDS011;63966;47.914;22.266;2023-02-28T07:37:26;10.38;;;5.10;;
75386;SDS011;63966;47.914;22.266;2023-02-28T07:40:30;21.08;;;8.68;;
75386;SDS011;63966;47.914;22.266;2023-02-28T07:43:36;11.07;;;5.68;;
75386;SDS011;63966;47.914;22.266;2023-02-28T07:46:40;15.63;;;6.53;;
75386;SDS011;63966;47.914;22.266;2023-02-28T07:49:44;11.55;;;5.47;;
75386;SDS011;63966;47.914;22.266;2023-02-28T07:52:48;10.68;;;5.28;;
75386;SDS011;63966;47.914;22.266;2023-02-28T07:55:55;12.10;;;6.10;;
75386;SDS011;63966;47.914;22.266;2023-02-28T07:59:01;16.30;;;6.93;;
75386;SDS011;63966;47.914;22.266;2023-02-28T08:02:05;11.05;;;5.35;;
75386;SDS011;63966;47.914;22.266;2023-02-28T08:05:08;10.05;;;5.40;;
75386;SDS011;63966;47.914;22.266;2023-02-28T08:08:12;13.80;;;5.97;;
75386;SDS011;63966;47.914;22.266;2023-02-28T08:11:16;11.82;;;5.15;;
75386;SDS011;63966;47.914;22.266;2023-02-28T08:14:20;13.83;;;6.70;;
75386;SDS011;63966;47.914;22.266;2023-02-28T08:17:24;13.73;;;6.25;;
75386;SDS011;63966;47.914;22.266;2023-02-28T08:20:28;12.38;;;5.90;;
75386;SDS011;63966;47.914;22.266;2023-02-28T08:23:31;16.02;;;7.43;;
75386;SDS011;63966;47.914;22.266;2023-02-28T08:26:35;13.00;;;6.00;;
75386;SDS011;63966;47.914;22.266;2023-02-28T08:29:39;12.43;;;6.90;;
75386;SDS011;63966;47.914;22.266;2023-02-28T08:32:43;11.90;;;5.97;;
75386;SDS011;63966;47.914;22.266;2023-02-28T08:35:46;10.93;;;5.43;;
75386;SDS011;63966;47.914;22.266;2023-02-28T08:38:50;16.80;;;7.57;;
75386;SDS011;63966;47.914;22.266;2023-02-28T08:41:54;21.13;;;9.57;;
75386;SDS011;63966;47.914;22.266;2023-02-28T08:45:09;11.87;;;6.33;;
75386;SDS011;63966;47.914;22.266;2023-02-28T08:48:13;12.13;;;6.22;;
75386;SDS011;63966;47.914;22.266;2023-02-28T08:51:20;13.13;;;7.38;;
75386;SDS011;63966;47.914;22.266;2023-02-28T08:54:29;12.73;;;6.20;;
75386;SDS011;63966;47.914;22.266;2023-02-28T08:57:34;13.70;;;6.22;;
75386;SDS011;63966;47.914;22.266;2023-02-28T09:00:39;14.33;;;6.77;;
75386;SDS011;63966;47.914;22.266;2023-02-28T09:03:43;14.38;;;7.68;;
75386;SDS011;63966;47.914;22.266;2023-02-28T09:06:48;18.08;;;7.13;;
75386;SDS011;63966;47.914;22.266;2023-02-28T09:09:52;14.50;;;7.80;;
75386;SDS011;63966;47.914;22.266;2023-02-28T09:12:57;18.90;;;9.65;;
75386;SDS011;63966;47.914;22.266;2023-02-28T09:16:01;18.53;;;8.93;;
75386;SDS011;63966;47.914;22.266;2023-02-28T09:19:07;20.83;;;10.07;;
75386;SDS011;63966;47.914;22.266;2023-02-28T09:22:14;17.98;;;9.13;;
75386;SDS011;63966;47.914;22.266;2023-02-28T09:25:18;14.98;;;7.20;;
75386;SDS011;63966;47.914;22.266;2023-02-28T09:28:22;17.48;;;8.07;;
75386;SDS011;63966;47.914;22.266;2023-02-28T09:31:27;16.03;;;8.47;;
75386;SDS011;63966;47.914;22.266;2023-02-28T09:34:31;15.05;;;8.18;;
75386;SDS011;63966;47.914;22.266;2023-02-28T09:37:35;17.77;;;8.20;;
75386;SDS011;63966;47.914;22.266;2023-02-28T09:40:41;19.38;;;8.27;;
75386;SDS011;63966;47.914;22.266;2023-02-28T09:43:52;17.08;;;8.55;;
75386;SDS011;63966;47.914;22.266;2023-02-28T09:47:00;14.53;;;7.00;;
75386;SDS011;63966;47.914;22.266;2023-02-28T09:50:23;13.20;;;6.40;;
75386;SDS011;63966;47.914;22.266;2023-02-28T09:53:37;13.55;;;7.20;;
75386;SDS011;63966;47.914;22.266;2023-02-28T09:56:42;13.15;;;7.05;;
75386;SDS011;63966;47.914;22.266;2023-02-28T10:00:40;13.55;;;6.93;;
75386;SDS011;63966;47.914;22.266;2023-02-28T10:03:49;14.67;;;7.10;;
75386;SDS011;63966;47.914;22.266;2023-02-28T10:06:59;14.40;;;7.67;;
75386;SDS011;63966;47.914;22.266;2023-02-28T10:10:19;14.50;;;7.78;;
75386;SDS011;63966;47.914;22.266;2023-02-28T10:16:43;12.18;;;6.00;;
75386;SDS011;63966;47.914;22.266;2023-02-28T10:20:02;12.67;;;6.60;;
75386;SDS011;63966;47.914;22.266;2023-02-28T10:23:20;18.35;;;8.93;;
75386;SDS011;63966;47.914;22.266;2023-02-28T10:26:47;15.82;;;7.60;;
75386;SDS011;63966;47.914;22.266;2023-02-28T10:29:54;11.15;;;6.15;;
75386;SDS011;63966;47.914;22.266;2023-02-28T10:32:59;18.38;;;9.13;;
75386;SDS011;63966;47.914;22.266;2023-02-28T10:36:03;10.18;;;4.95;;
75386;SDS011;63966;47.914;22.266;2023-02-28T10:42:40;12.43;;;6.00;;
75386;SDS011;63966;47.914;22.266;2023-02-28T10:45:56;10.38;;;6.00;;
75386;SDS011;63966;47.914;22.266;2023-02-28T10:49:05;13.02;;;6.47;;
75386;SDS011;63966;47.914;22.266;2023-02-28T10:52:16;14.00;;;6.67;;
75386;SDS011;63966;47.914;22.266;2023-02-28T10:55:38;11.73;;;6.17;;
75386;SDS011;63966;47.914;22.266;2023-02-28T11:02:02;11.32;;;5.53;;
75386;SDS011;63966;47.914;22.266;2023-02-28T11:05:26;13.55;;;6.60;;
75386;SDS011;63966;47.914;22.266;2023-02-28T11:08:30;13.00;;;5.93;;
75386;SDS011;63966;47.914;22.266;2023-02-28T11:11:44;12.03;;;6.10;;
75386;SDS011;63966;47.914;22.266;2023-02-28T11:14:52;11.90;;;5.53;;
75386;SDS011;63966;47.914;22.266;2023-02-28T11:21:25;9.77;;;4.78;;
75386;SDS011;63966;47.914;22.266;2023-02-28T11:24:33;10.40;;;5.30;;
75386;SDS011;63966;47.914;22.266;2023-02-28T11:34:24;10.45;;;4.95;;
75386;SDS011;63966;47.914;22.266;2023-02-28T11:37:30;12.10;;;6.18;;
75386;SDS011;63966;47.914;22.266;2023-02-28T11:44:03;10.83;;;5.23;;
75386;SDS011;63966;47.914;22.266;2023-02-28T11:50:37;10.13;;;4.63;;
75386;SDS011;63966;47.914;22.266;2023-02-28T11:53:59;12.88;;;5.68;;
75386;SDS011;63966;47.914;22.266;2023-02-28T12:03:58;9.52;;;4.85;;
75386;SDS011;63966;47.914;22.266;2023-02-28T12:11:05;12.18;;;5.68;;
75386;SDS011;63966;47.914;22.266;2023-02-28T12:24:51;9.07;;;5.20;;
75386;SDS011;63966;47.914;22.266;2023-02-28T12:28:10;10.80;;;5.43;;
75386;SDS011;63966;47.914;22.266;2023-02-28T12:31:18;13.13;;;5.93;;
75386;SDS011;63966;47.914;22.266;2023-02-28T12:34:31;12.53;;;5.67;;
75386;SDS011;63966;47.914;22.266;2023-02-28T12:37:41;11.52;;;5.78;;
75386;SDS011;63966;47.914;22.266;2023-02-28T12:40:53;10.13;;;5.53;;
75386;SDS011;63966;47.914;22.266;2023-02-28T12:47:32;10.30;;;5.20;;
75386;SDS011;63966;47.914;22.266;2023-02-28T12:50:36;10.83;;;5.77;;
75386;SDS011;63966;47.914;22.266;2023-02-28T13:09:59;12.40;;;6.00;;
75386;SDS011;63966;47.914;22.266;2023-02-28T13:13:06;11.02;;;5.53;;
75386;SDS011;63966;47.914;22.266;2023-02-28T13:16:28;12.02;;;6.25;;
75386;SDS011;63966;47.914;22.266;2023-02-28T13:20:00;10.90;;;5.47;;
75386;SDS011;63966;47.914;22.266;2023-02-28T13:23:04;10.67;;;5.93;;
75386;SDS011;63966;47.914;22.266;2023-02-28T13:27:10;11.48;;;5.88;;
75386;SDS011;63966;47.914;22.266;2023-02-28T14:32:27;15.00;;;7.07;;
75386;SDS011;63966;47.914;22.266;2023-02-28T14:35:54;12.20;;;6.63;;
75386;SDS011;63966;47.914;22.266;2023-02-28T14:39:21;14.32;;;7.70;;
75386;SDS011;63966;47.914;22.266;2023-02-28T14:42:36;12.20;;;7.07;;
75386;SDS011;63966;47.914;22.266;2023-02-28T14:45:44;12.32;;;6.30;;
75386;SDS011;63966;47.914;22.266;2023-02-28T14:49:04;11.73;;;6.53;;
75386;SDS011;63966;47.914;22.266;2023-02-28T14:55:19;12.32;;;6.50;;
75386;SDS011;63966;47.914;22.266;2023-02-28T14:58:29;15.73;;;7.03;;
75386;SDS011;63966;47.914;22.266;2023-02-28T15:01:42;12.27;;;6.45;;
75386;SDS011;63966;47.914;22.266;2023-02-28T15:04:52;18.37;;;10.00;;
75386;SDS011;63966;47.914;22.266;2023-02-28T15:08:11;11.17;;;6.43;;
75386;SDS011;63966;47.914;22.266;2023-02-28T15:11:17;12.85;;;6.30;;
75386;SDS011;63966;47.914;22.266;2023-02-28T15:14:24;15.18;;;7.25;;
75386;SDS011;63966;47.914;22.266;2023-02-28T15:17:30;13.82;;;7.68;;
75386;SDS011;63966;47.914;22.266;2023-02-28T15:20:33;13.77;;;7.53;;
75386;SDS011;63966;47.914;22.266;2023-02-28T15:23:42;17.00;;;9.33;;
75386;SDS011;63966;47.914;22.266;2023-02-28T15:26:57;16.25;;;8.18;;
75386;SDS011;63966;47.914;22.266;2023-02-28T15:30:07;21.60;;;10.05;;
75386;SDS011;63966;47.914;22.266;2023-02-28T15:33:20;15.85;;;9.23;;
75386;SDS011;63966;47.914;22.266;2023-02-28T15:36:28;16.87;;;9.63;;
75386;SDS011;63966;47.914;22.266;2023-02-28T15:39:34;16.13;;;8.17;;
75386;SDS011;63966;47.914;22.266;2023-02-28T15:43:13;15.27;;;8.10;;
75386;SDS011;63966;47.914;22.266;2023-02-28T15:46:17;17.73;;;8.65;;
75386;SDS011;63966;47.914;22.266;2023-02-28T15:49:25;15.13;;;8.20;;
75386;SDS011;63966;47.914;22.266;2023-02-28T15:52:34;16.87;;;9.50;;
75386;SDS011;63966;47.914;22.266;2023-02-28T15:55:43;28.70;;;13.60;;
75386;SDS011;63966;47.914;22.266;2023-02-28T15:58:46;40.70;;;18.25;;
75386;SDS011;63966;47.914;22.266;2023-02-28T16:05:26;46.22;;;21.00;;
75386;SDS011;63966;47.914;22.266;2023-02-28T16:08:32;22.20;;;11.17;;
75386;SDS011;63966;47.914;22.266;2023-02-28T16:11:38;19.37;;;11.67;;
75386;SDS011;63966;47.914;22.266;2023-02-28T16:14:43;30.58;;;15.48;;
75386;SDS011;63966;47.914;22.266;2023-02-28T16:17:47;29.92;;;15.60;;
75386;SDS011;63966;47.914;22.266;2023-02-28T16:20:51;24.02;;;12.82;;
75386;SDS011;63966;47.914;22.266;2023-02-28T16:23:55;29.20;;;15.33;;
75386;SDS011;63966;47.914;22.266;2023-02-28T16:26:59;29.53;;;14.43;;
75386;SDS011;63966;47.914;22.266;2023-02-28T16:30:04;33.72;;;17.13;;
75386;SDS011;63966;47.914;22.266;2023-02-28T16:33:08;32.30;;;15.75;;
75386;SDS011;63966;47.914;22.266;2023-02-28T16:36:16;26.05;;;14.32;;
75386;SDS011;63966;47.914;22.266;2023-02-28T16:39:22;30.73;;;18.27;;
75386;SDS011;63966;47.914;22.266;2023-02-28T16:42:27;25.37;;;13.90;;
75386;SDS011;63966;47.914;22.266;2023-02-28T16:45:33;25.35;;;14.02;;
75386;SDS011;63966;47.914;22.266;2023-02-28T16:48:36;40.78;;;16.23;;
75386;SDS011;63966;47.914;22.266;2023-02-28T16:51:41;41.00;;;16.50;;
75386;SDS011;63966;47.914;22.266;2023-02-28T16:54:45;39.87;;;16.53;;
75386;SDS011;63966;47.914;22.266;2023-02-28T16:57:52;36.90;;;16.97;;
75386;SDS011;63966;47.914;22.266;2023-02-28T17:00:58;25.73;;;14.05;;
75386;SDS011;63966;47.914;22.266;2023-02-28T17:04:01;27.75;;;12.35;;
75386;SDS011;63966;47.914;22.266;2023-02-28T17:07:08;32.33;;;14.73;;
75386;SDS011;63966;47.914;22.266;2023-02-28T17:10:17;27.47;;;11.17;;
75386;SDS011;63966;47.914;22.266;2023-02-28T17:13:25;22.13;;;13.82;;
75386;SDS011;63966;47.914;22.266;2023-02-28T17:16:30;26.45;;;13.90;;
75386;SDS011;63966;47.914;22.266;2023-02-28T17:19:38;30.48;;;15.43;;
75386;SDS011;63966;47.914;22.266;2023-02-28T17:22:45;35.45;;;16.73;;
75386;SDS011;63966;47.914;22.266;2023-02-28T17:25:48;31.23;;;16.13;;
75386;SDS011;63966;47.914;22.266;2023-02-28T17:28:59;36.80;;;18.58;;
75386;SDS011;63966;47.914;22.266;2023-02-28T17:32:03;64.57;;;30.33;;
75386;SDS011;63966;47.914;22.266;2023-02-28T17:35:18;93.32;;;39.55;;
75386;SDS011;63966;47.914;22.266;2023-02-28T17:38:22;86.55;;;35.22;;
75386;SDS011;63966;47.914;22.266;2023-02-28T17:41:26;78.97;;;33.67;;
75386;SDS011;63966;47.914;22.266;2023-02-28T17:44:32;72.25;;;32.38;;
75386;SDS011;63966;47.914;22.266;2023-02-28T17:47:36;74.05;;;31.35;;
75386;SDS011;63966;47.914;22.266;2023-02-28T17:50:40;67.22;;;30.63;;
75386;SDS011;63966;47.914;22.266;2023-02-28T17:53:44;102.45;;;47.45;;
75386;SDS011;63966;47.914;22.266;2023-02-28T17:56:48;138.37;;;65.23;;
75386;SDS011;63966;47.914;22.266;2023-02-28T17:59:51;106.32;;;47.97;;
75386;SDS011;63966;47.914;22.266;2023-02-28T18:02:55;130.07;;;49.30;;
75386;SDS011;63966;47.914;22.266;2023-02-28T18:06:02;128.70;;;53.80;;
75386;SDS011;63966;47.914;22.266;2023-02-28T18:09:08;151.30;;;59.53;;
75386;SDS011;63966;47.914;22.266;2023-02-28T18:12:13;317.80;;;99.17;;
75386;SDS011;63966;47.914;22.266;2023-02-28T18:15:17;327.40;;;101.03;;
75386;SDS011;63966;47.914;22.266;2023-02-28T18:18:24;192.65;;;62.13;;
75386;SDS011;63966;47.914;22.266;2023-02-28T18:21:28;120.22;;;43.90;;
75386;SDS011;63966;47.914;22.266;2023-02-28T18:24:32;92.88;;;37.58;;
75386;SDS011;63966;47.914;22.266;2023-02-28T18:27:36;102.83;;;41.20;;
75386;SDS011;63966;47.914;22.266;2023-02-28T18:30:40;96.90;;;38.73;;
75386;SDS011;63966;47.914;22.266;2023-02-28T18:33:49;86.05;;;37.55;;
75386;SDS011;63966;47.914;22.266;2023-02-28T18:36:53;82.20;;;35.83;;
75386;SDS011;63966;47.914;22.266;2023-02-28T18:39:58;87.60;;;37.65;;
75386;SDS011;63966;47.914;22.266;2023-02-28T18:43:02;57.57;;;28.43;;
75386;SDS011;63966;47.914;22.266;2023-02-28T18:46:08;52.30;;;27.52;;
75386;SDS011;63966;47.914;22.266;2023-02-28T18:49:14;47.85;;;23.85;;
75386;SDS011;63966;47.914;22.266;2023-02-28T18:52:18;49.35;;;24.02;;
75386;SDS011;63966;47.914;22.266;2023-02-28T18:55:21;52.38;;;25.13;;
75386;SDS011;63966;47.914;22.266;2023-02-28T18:58:25;46.80;;;24.10;;
75386;SDS011;63966;47.914;22.266;2023-02-28T19:01:29;44.55;;;20.83;;
75386;SDS011;63966;47.914;22.266;2023-02-28T19:04:34;45.00;;;21.65;;
75386;SDS011;63966;47.914;22.266;2023-02-28T19:07:38;64.88;;;30.67;;
75386;SDS011;63966;47.914;22.266;2023-02-28T19:10:42;56.67;;;26.15;;
75386;SDS011;63966;47.914;22.266;2023-02-28T19:13:46;54.13;;;26.00;;
75386;SDS011;63966;47.914;22.266;2023-02-28T19:16:51;64.25;;;29.13;;
75386;SDS011;63966;47.914;22.266;2023-02-28T19:19:55;67.72;;;29.95;;
75386;SDS011;63966;47.914;22.266;2023-02-28T19:22:59;63.03;;;28.30;;
75386;SDS011;63966;47.914;22.266;2023-02-28T19:26:07;58.58;;;27.67;;
75386;SDS011;63966;47.914;22.266;2023-02-28T19:29:12;60.13;;;26.77;;
75386;SDS011;63966;47.914;22.266;2023-02-28T19:32:17;41.03;;;21.70;;
75386;SDS011;63966;47.914;22.266;2023-02-28T19:35:22;58.03;;;26.73;;
75386;SDS011;63966;47.914;22.266;2023-02-28T19:38:26;58.97;;;27.17;;
75386;SDS011;63966;47.914;22.266;2023-02-28T19:41:29;52.45;;;25.20;;
75386;SDS011;63966;47.914;22.266;2023-02-28T19:44:34;54.83;;;26.10;;
75386;SDS011;63966;47.914;22.266;2023-02-28T19:47:37;68.00;;;30.98;;
75386;SDS011;63966;47.914;22.266;2023-02-28T19:50:48;73.72;;;30.60;;
75386;SDS011;63966;47.914;22.266;2023-02-28T19:53:52;66.47;;;28.92;;
75386;SDS011;63966;47.914;22.266;2023-02-28T19:56:56;57.83;;;26.02;;
75386;SDS011;63966;47.914;22.266;2023-02-28T19:59:59;55.93;;;24.33;;
75386;SDS011;63966;47.914;22.266;2023-02-28T20:03:16;42.78;;;21.90;;
75386;SDS011;63966;47.914;22.266;2023-02-28T20:06:20;36.30;;;19.85;;
75386;SDS011;63966;47.914;22.266;2023-02-28T20:09:24;34.20;;;17.38;;
75386;SDS011;63966;47.914;22.266;2023-02-28T20:12:31;59.38;;;25.45;;
75386;SDS011;63966;47.914;22.266;2023-02-28T20:15:36;38.33;;;17.40;;
75386;SDS011;63966;47.914;22.266;2023-02-28T20:18:40;41.17;;;18.13;;
75386;SDS011;63966;47.914;22.266;2023-02-28T20:21:46;34.75;;;17.77;;
75386;SDS011;63966;47.914;22.266;2023-02-28T20:24:49;33.08;;;15.30;;
75386;SDS011;63966;47.914;22.266;2023-02-28T20:27:54;28.08;;;12.63;;
75386;SDS011;63966;47.914;22.266;2023-02-28T20:30:58;35.40;;;16.63;;
75386;SDS011;63966;47.914;22.266;2023-02-28T20:34:03;26.40;;;14.10;;
75386;SDS011;63966;47.914;22.266;2023-02-28T20:37:07;34.22;;;15.48;;
75386;SDS011;63966;47.914;22.266;2023-02-28T20:40:11;40.42;;;18.23;;
75386;SDS011;63966;47.914;22.266;2023-02-28T20:43:15;47.70;;;20.20;;
75386;SDS011;63966;47.914;22.266;2023-02-28T20:46:19;41.23;;;16.63;;
75386;SDS011;63966;47.914;22.266;2023-02-28T20:49:23;24.75;;;11.43;;
75386;SDS011;63966;47.914;22.266;2023-02-28T20:52:26;24.70;;;11.30;;
75386;SDS011;63966;47.914;22.266;2023-02-28T20:55:30;20.83;;;10.82;;
75386;SDS011;63966;47.914;22.266;2023-02-28T20:58:35;21.05;;;10.75;;
75386;SDS011;63966;47.914;22.266;2023-02-28T21:01:39;22.23;;;10.50;;
75386;SDS011;63966;47.914;22.266;2023-02-28T21:04:46;19.67;;;9.70;;
75386;SDS011;63966;47.914;22.266;2023-02-28T21:07:51;20.85;;;10.25;;